Time;durP1;ratioP1;P1;durP2;ratioP2;P2;SDS_P1;SDS_P2;PMS_P1;PMS_P2;Temp;Humidity;BMP_temperature;BMP_pressure;BME280_temperature;BME280_humidity;BME280_pressure;Samples;Min_cycle;Max_cycle;Signal;HPM_P1;HPM_P2
2022/11/22 00:00:13;;;;;;;15.57;4.68;;;;;;;6.37;100.00;98966.56;5050093;28;20036;-81
2022/11/22 00:02:42;;;;;;;16.42;5.30;;;;;;;6.40;100.00;98970.75;5049662;28;20025;-81
2022/11/22 00:05:07;;;;;;;16.60;5.28;;;;;;;6.41;100.00;98964.44;5051209;28;20119;-81
2022/11/22 00:07:33;;;;;;;17.60;5.05;;;;;;;6.41;100.00;98959.13;5050649;28;20175;-80
2022/11/22 00:09:58;;;;;;;16.08;5.18;;;;;;;6.39;100.00;98951.25;5050950;28;20442;-80
2022/11/22 00:12:23;;;;;;;19.20;5.93;;;;;;;6.38;100.00;98956.72;5047468;28;20048;-80
2022/11/22 00:14:48;;;;;;;14.93;4.88;;;;;;;6.35;100.00;98947.16;5032211;28;20056;-80
2022/11/22 00:17:14;;;;;;;13.35;4.80;;;;;;;6.34;100.00;98953.47;5049268;28;20051;-80
2022/11/22 00:19:39;;;;;;;11.50;4.57;;;;;;;6.37;100.00;98971.03;5050700;28;20033;-80
2022/11/22 00:22:05;;;;;;;14.13;5.03;;;;;;;6.36;100.00;98969.34;5046611;28;20039;-80
2022/11/22 00:24:31;;;;;;;16.55;4.60;;;;;;;6.36;100.00;98956.84;5042383;28;20030;-80
2022/11/22 00:26:56;;;;;;;16.13;5.07;;;;;;;6.35;100.00;98951.66;5045148;28;20076;-80
2022/11/22 00:29:21;;;;;;;18.30;5.05;;;;;;;6.33;100.00;98951.78;5037815;28;20420;-80
2022/11/22 00:31:47;;;;;;;15.27;4.75;;;;;;;6.30;100.00;98957.38;5046454;28;20036;-80
2022/11/22 00:34:12;;;;;;;16.65;4.85;;;;;;;6.24;100.00;98964.09;5034631;28;20374;-80
2022/11/22 00:36:37;;;;;;;13.30;4.40;;;;;;;6.23;100.00;98962.38;5050669;28;20032;-80
2022/11/22 00:39:02;;;;;;;15.43;4.75;;;;;;;6.22;100.00;98966.06;5050933;28;20056;-80
2022/11/22 00:41:28;;;;;;;15.32;5.20;;;;;;;6.21;100.00;98967.03;5065018;28;20076;-80
2022/11/22 00:43:53;;;;;;;20.40;5.60;;;;;;;6.19;100.00;98960.97;5049162;28;20639;-80
2022/11/22 00:46:18;;;;;;;17.02;5.22;;;;;;;6.17;100.00;98954.91;5049900;28;20167;-80
2022/11/22 00:48:43;;;;;;;18.90;5.68;;;;;;;6.14;100.00;98960.53;5047116;28;20029;-80
2022/11/22 00:51:09;;;;;;;16.35;4.97;;;;;;;6.11;100.00;98953.63;5043681;28;20029;-80
2022/11/22 00:53:34;;;;;;;13.98;4.60;;;;;;;6.08;100.00;98958.38;5049511;28;20032;-80
2022/11/22 00:55:59;;;;;;;13.95;4.35;;;;;;;6.07;100.00;98959.34;5049805;28;20036;-80
2022/11/22 00:58:25;;;;;;;12.25;3.60;;;;;;;6.02;100.00;98956.22;5050847;28;20401;-80
2022/11/22 01:00:50;;;;;;;14.48;5.03;;;;;;;6.01;100.00;98966.03;5053936;28;20118;-80
2022/11/22 01:03:16;;;;;;;15.63;4.28;;;;;;;5.97;100.00;98961.06;5053731;28;20126;-80
2022/11/22 01:05:41;;;;;;;16.13;4.28;;;;;;;5.94;100.00;98957.69;5045906;28;20034;-80
2022/11/22 01:08:06;;;;;;;15.45;4.70;;;;;;;5.90;100.00;98952.72;5049164;28;20109;-80
2022/11/22 01:10:35;;;;;;;14.48;4.78;;;;;;;5.87;100.00;98961.00;5048212;28;20039;-80
2022/11/22 01:13:00;;;;;;;14.35;4.45;;;;;;;5.83;100.00;98957.75;5047840;28;20028;-80
2022/11/22 01:15:25;;;;;;;16.48;4.30;;;;;;;5.81;100.00;98959.69;5047902;28;20415;-80
2022/11/22 01:17:50;;;;;;;18.15;4.32;;;;;;;5.80;100.00;98968.69;5050856;28;20503;-80
2022/11/22 01:20:16;;;;;;;15.73;4.40;;;;;;;5.77;100.00;98969.78;5050656;28;20033;-80
2022/11/22 01:22:41;;;;;;;15.60;4.13;;;;;;;5.74;100.00;98963.84;5048141;28;20040;-80
2022/11/22 01:25:07;;;;;;;19.13;4.88;;;;;;;5.74;100.00;98977.16;5050689;28;20107;-80
2022/11/22 01:27:33;;;;;;;13.00;3.90;;;;;;;5.73;100.00;98972.81;5050344;28;20035;-80
2022/11/22 01:29:58;;;;;;;22.15;4.55;;;;;;;5.72;100.00;98971.97;5049628;28;20396;-80
2022/11/22 01:32:24;;;;;;;17.05;4.55;;;;;;;5.71;100.00;98969.44;5050411;28;20025;-80
2022/11/22 01:34:49;;;;;;;13.93;4.35;;;;;;;5.67;100.00;98960.84;5045477;28;20033;-80
2022/11/22 01:37:14;;;;;;;18.10;4.28;;;;;;;5.67;100.00;98968.00;5049061;28;20072;-80
2022/11/22 01:39:40;;;;;;;18.10;4.63;;;;;;;5.67;100.00;98976.84;5037244;28;20516;-80
2022/11/22 01:42:05;;;;;;;18.60;3.65;;;;;;;5.65;100.00;98969.94;5048426;28;20041;-80
2022/11/22 01:44:31;;;;;;;19.70;4.15;;;;;;;5.63;100.00;98975.41;5048861;28;20532;-80
2022/11/22 01:46:59;;;;;;;14.52;4.00;;;;;;;5.63;100.00;98982.56;5047880;28;20024;-80
2022/11/22 01:49:30;;;;;;;16.35;3.85;;;;;;;5.63;100.00;98983.41;5047026;28;20572;-80
2022/11/22 01:52:01;;;;;;;20.58;4.22;;;;;;;5.60;100.00;98991.66;5047477;28;20053;-80
2022/11/22 01:54:30;;;;;;;14.02;3.60;;;;;;;5.62;100.00;98994.19;5050056;28;20029;-80
2022/11/22 01:57:01;;;;;;;14.27;3.85;;;;;;;5.63;100.00;98985.22;5049766;28;20033;-80
2022/11/22 01:59:32;;;;;;;23.95;4.10;;;;;;;5.64;100.00;98992.22;5047352;28;20113;-80
2022/11/22 02:01:58;;;;;;;16.98;4.13;;;;;;;5.62;100.00;98991.53;5045390;28;20021;-80
2022/11/22 02:04:27;;;;;;;16.88;3.70;;;;;;;5.63;100.00;98991.38;5046127;28;20473;-80
2022/11/22 02:07:21;;;;;;;12.77;3.22;;;;;;;5.68;100.00;99001.66;5049842;28;20108;-80
2022/11/22 02:09:49;;;;;;;15.95;3.95;;;;;;;5.65;100.00;98996.59;5044024;28;20132;-80
2022/11/22 02:12:17;;;;;;;19.90;4.22;;;;;;;5.62;100.00;98999.50;5043664;28;20052;-80
2022/11/22 02:14:43;;;;;;;15.85;3.53;;;;;;;5.62;100.00;99004.84;5046161;28;20052;-80
2022/11/22 02:17:09;;;;;;;15.65;3.65;;;;;;;5.61;100.00;99004.00;5054222;28;20025;-80
2022/11/22 02:19:43;;;;;;;17.73;3.88;;;;;;;5.61;100.00;99006.66;5057001;28;20026;-80
2022/11/22 02:22:14;;;;;;;16.92;4.07;;;;;;;5.58;100.00;98999.78;5064991;28;20020;-80
2022/11/22 02:24:49;;;;;;;18.30;4.03;;;;;;;5.58;100.00;99005.09;5049982;28;20036;-80
2022/11/22 02:27:14;;;;;;;20.63;4.28;;;;;;;5.57;100.00;99008.72;5065648;28;20044;-80
2022/11/22 02:29:40;;;;;;;19.10;3.72;;;;;;;5.54;100.00;99003.66;5036776;28;20025;-80
2022/11/22 02:32:06;;;;;;;28.17;4.63;;;;;;;5.57;100.00;99007.88;5048569;28;20365;-80
2022/11/22 02:34:43;;;;;;;16.88;4.25;;;;;;;5.57;100.00;99019.38;5039045;28;20029;-80
2022/11/22 02:37:12;;;;;;;23.30;3.42;;;;;;;5.55;100.00;99013.34;5047509;28;20032;-80
2022/11/22 02:39:40;;;;;;;16.05;4.30;;;;;;;5.53;100.00;99006.44;5048803;28;20024;-80
2022/11/22 02:42:06;;;;;;;19.08;3.83;;;;;;;5.52;100.00;99010.94;5048292;28;20037;-80
2022/11/22 02:44:32;;;;;;;16.40;4.22;;;;;;;5.50;100.00;99015.53;5045251;28;20529;-80
2022/11/22 02:46:57;;;;;;;15.38;3.75;;;;;;;5.51;100.00;99014.56;5048689;28;20074;-80
2022/11/22 02:49:24;;;;;;;14.20;3.80;;;;;;;5.48;100.00;99014.00;5051928;28;20395;-80
2022/11/22 02:51:51;;;;;;;14.60;3.40;;;;;;;5.45;100.00;99009.75;5052281;28;20024;-80
2022/11/22 02:54:17;;;;;;;17.77;3.28;;;;;;;5.45;100.00;99020.41;5069763;28;20245;-80
2022/11/22 02:56:42;;;;;;;12.60;3.42;;;;;;;5.45;100.00;99022.19;5051360;28;20025;-80
2022/11/22 02:59:07;;;;;;;18.80;4.05;;;;;;;5.43;100.00;99014.34;5048505;28;20275;-80
2022/11/22 03:01:33;;;;;;;16.65;3.42;;;;;;;5.41;100.00;99018.94;5042424;28;20021;-80
2022/11/22 03:03:58;;;;;;;17.33;4.20;;;;;;;5.39;100.00;99018.25;5052371;28;20032;-80
2022/11/22 03:06:23;;;;;;;20.92;4.10;;;;;;;5.38;100.00;99020.03;5046145;28;20025;-80
2022/11/22 03:08:49;;;;;;;17.77;4.45;;;;;;;5.36;100.00;99010.47;5049563;28;20465;-80
2022/11/22 03:11:14;;;;;;;12.02;3.17;;;;;;;5.34;100.00;99018.59;5051986;28;20036;-80
2022/11/22 03:13:39;;;;;;;13.25;3.17;;;;;;;5.30;100.00;99029.63;5051924;28;20029;-80
2022/11/22 03:16:05;;;;;;;17.00;3.80;;;;;;;5.29;100.00;99033.28;5050191;28;20036;-80
2022/11/22 03:18:35;;;;;;;17.40;3.97;;;;;;;5.27;100.00;99033.41;5051949;28;20528;-80
2022/11/22 03:21:02;;;;;;;13.60;2.97;;;;;;;5.25;100.00;99045.97;5051637;28;20101;-80
2022/11/22 03:23:28;;;;;;;13.45;3.05;;;;;;;5.21;100.00;99048.06;5049371;28;20470;-80
2022/11/22 03:25:53;;;;;;;14.23;3.45;;;;;;;5.19;100.00;99044.66;5049107;28;20025;-80
2022/11/22 03:28:19;;;;;;;15.93;3.58;;;;;;;5.17;100.00;99037.75;5049754;28;20033;-80
2022/11/22 03:30:44;;;;;;;18.73;4.22;;;;;;;5.15;100.00;99045.03;5049467;28;21528;-80
2022/11/22 03:33:09;;;;;;;17.33;3.65;;;;;;;5.12;100.00;99050.59;5049494;28;20091;-80
2022/11/22 03:35:34;;;;;;;22.33;4.00;;;;;;;5.09;100.00;99041.03;5051241;28;20487;-80
2022/11/22 03:38:00;;;;;;;23.20;3.80;;;;;;;5.07;100.00;99042.97;5053537;28;20027;-80
2022/11/22 03:40:25;;;;;;;19.40;3.75;;;;;;;5.04;100.00;99043.22;5050887;28;20082;-80
2022/11/22 03:42:50;;;;;;;21.23;3.78;;;;;;;5.01;100.00;99038.16;5050110;28;20045;-80
2022/11/22 03:45:15;;;;;;;16.95;3.28;;;;;;;5.00;100.00;99045.28;5051441;28;20029;-80
2022/11/22 03:47:41;;;;;;;15.45;3.90;;;;;;;4.99;100.00;99045.41;5051069;28;20357;-80
2022/11/22 03:50:09;;;;;;;22.88;3.78;;;;;;;4.95;100.00;99049.25;5052578;28;20444;-80
2022/11/22 03:52:35;;;;;;;15.52;3.72;;;;;;;4.93;100.00;99043.22;5049968;28;20036;-80
2022/11/22 03:55:00;;;;;;;19.40;4.25;;;;;;;4.89;100.00;99050.59;5050485;28;20372;-80
2022/11/22 03:57:25;;;;;;;17.10;3.83;;;;;;;4.88;100.00;99043.59;5048536;28;20456;-80
2022/11/22 03:59:51;;;;;;;20.10;3.40;;;;;;;4.86;100.00;99049.03;5050038;28;20021;-80
2022/11/22 04:02:16;;;;;;;17.35;4.35;;;;;;;4.85;100.00;99054.47;5049394;28;20047;-80
2022/11/22 04:04:41;;;;;;;14.40;3.83;;;;;;;4.85;100.00;99054.47;5049543;28;20472;-80
2022/11/22 04:07:07;;;;;;;17.75;4.40;;;;;;;4.82;100.00;99049.41;5047050;28;20104;-80
2022/11/22 04:09:32;;;;;;;20.38;3.97;;;;;;;4.80;100.00;99046.88;5047189;28;20044;-80
2022/11/22 04:11:57;;;;;;;13.27;3.58;;;;;;;4.77;100.00;99051.56;5049003;28;20032;-80
2022/11/22 04:17:06;;;;;;;20.38;4.25;;;;;;;4.72;100.00;99068.72;5049365;28;20044;-80
2022/11/22 04:19:31;;;;;;;16.42;4.18;;;;;;;4.72;100.00;99073.22;5041867;28;20033;-80
2022/11/22 04:21:57;;;;;;;16.45;3.67;;;;;;;4.71;100.00;99079.50;5065720;28;20365;-80
2022/11/22 04:27:06;;;;;;;17.90;3.28;;;;;;;4.66;100.00;99090.50;5045078;28;20115;-80
2022/11/22 04:29:31;;;;;;;16.70;3.80;;;;;;;4.66;100.00;99081.69;5041041;28;20026;-80
2022/11/22 04:34:40;;;;;;;22.77;4.75;;;;;;;4.61;100.00;99071.41;5050101;28;20128;-80
2022/11/22 04:37:06;;;;;;;17.50;4.07;;;;;;;4.59;100.00;99075.97;5067414;28;20112;-80
2022/11/22 04:39:32;;;;;;;19.65;4.13;;;;;;;4.58;100.00;99081.41;5034393;28;20021;-80
2022/11/22 04:44:42;;;;;;;17.02;4.25;;;;;;;4.49;100.00;99081.13;5051368;28;20040;-80
2022/11/22 04:47:57;;;;;;;16.17;3.67;;;;;;;4.48;100.00;99078.59;5049464;28;20475;-80
2022/11/22 04:49:58;;;;;;;13.65;3.70;;;;;;;4.46;100.00;99085.88;5049506;28;20128;-80
2022/11/22 04:55:08;;;;;;;19.48;3.97;;;;;;;4.43;100.00;99094.06;5050180;28;20094;-80
2022/11/22 04:57:33;;;;;;;14.65;3.75;;;;;;;4.42;100.00;99084.41;5051215;28;20025;-80
2022/11/22 04:59:58;;;;;;;14.90;3.47;;;;;;;4.41;100.00;99082.69;5050870;28;20051;-80
2022/11/22 05:02:24;;;;;;;12.88;3.60;;;;;;;4.39;100.00;99093.44;5049268;28;20032;-80
2022/11/22 05:04:49;;;;;;;19.00;3.33;;;;;;;4.38;100.00;99094.44;5043327;28;20029;-80
2022/11/22 05:07:15;;;;;;;12.13;3.05;;;;;;;4.38;100.00;99091.78;5048690;28;20032;-80
2022/11/22 05:09:40;;;;;;;21.70;3.92;;;;;;;4.35;100.00;99089.34;5051722;28;20028;-80
2022/11/22 05:12:06;;;;;;;15.48;3.22;;;;;;;4.34;100.00;99088.47;5049622;28;20457;-80
2022/11/22 05:14:31;;;;;;;18.58;3.75;;;;;;;4.35;100.00;99094.66;5048324;28;20101;-80
2022/11/22 05:16:56;;;;;;;14.30;3.63;;;;;;;4.32;100.00;99082.44;5047490;28;20053;-79
2022/11/22 05:19:22;;;;;;;10.13;2.67;;;;;;;4.33;100.00;99093.91;5062362;28;20170;-79
2022/11/22 05:21:47;;;;;;;16.02;3.28;;;;;;;4.31;100.00;99080.75;5046140;28;20028;-79
2022/11/22 05:24:12;;;;;;;17.15;3.30;;;;;;;4.32;100.00;99089.56;5041051;28;20587;-80
2022/11/22 05:26:37;;;;;;;19.05;4.30;;;;;;;4.30;100.00;99089.66;5051469;28;20400;-80
2022/11/22 05:29:06;;;;;;;20.48;4.18;;;;;;;4.30;100.00;99088.84;5048969;28;20024;-80
2022/11/22 05:31:33;;;;;;;15.85;3.53;;;;;;;4.27;100.00;99091.72;5045728;28;20037;-80
2022/11/22 05:33:59;;;;;;;17.17;3.88;;;;;;;4.25;100.00;99086.53;5047495;28;20368;-80
2022/11/22 05:36:24;;;;;;;21.30;3.33;;;;;;;4.24;100.00;99086.66;5050576;28;20021;-80
2022/11/22 05:38:50;;;;;;;16.52;4.00;;;;;;;4.23;100.00;99088.44;5048605;28;20021;-80
2022/11/22 05:41:16;;;;;;;16.58;3.75;;;;;;;4.22;100.00;99084.09;5048985;28;20040;-80
2022/11/22 05:43:42;;;;;;;13.35;3.75;;;;;;;4.22;100.00;99081.44;5049699;28;20120;-80
2022/11/22 05:46:13;;;;;;;14.13;3.53;;;;;;;4.20;100.00;99084.22;5048475;28;20111;-80
2022/11/22 05:48:40;;;;;;;11.90;3.03;;;;;;;4.19;100.00;99087.00;5046117;28;20150;-80
2022/11/22 05:51:08;;;;;;;18.02;3.45;;;;;;;4.18;100.00;99094.09;5048730;28;20130;-80
2022/11/22 05:53:35;;;;;;;16.75;3.25;;;;;;;4.16;100.00;99080.09;5039048;28;20527;-80
2022/11/22 05:56:08;;;;;;;16.50;3.22;;;;;;;4.15;100.00;99074.88;5062100;28;20068;-79
2022/11/22 05:58:34;;;;;;;13.93;3.10;;;;;;;4.14;100.00;99076.72;5047991;28;20118;-80
2022/11/22 06:01:07;;;;;;;13.15;3.35;;;;;;;4.12;100.00;99067.97;5046308;28;20035;-80
2022/11/22 06:03:34;;;;;;;12.60;3.22;;;;;;;4.10;100.00;99074.38;5050792;28;20075;-79
2022/11/22 06:05:59;;;;;;;17.10;4.80;;;;;;;4.07;100.00;99070.16;5046833;28;20052;-79
2022/11/22 06:08:24;;;;;;;17.23;3.90;;;;;;;4.05;100.00;99080.03;5051135;28;20055;-79
2022/11/22 06:10:50;;;;;;;17.15;3.38;;;;;;;4.01;100.00;99082.09;5046435;28;20027;-80
2022/11/22 06:13:15;;;;;;;16.45;3.88;;;;;;;3.99;100.00;99081.34;5045178;28;20106;-79
2022/11/22 06:15:40;;;;;;;17.23;3.20;;;;;;;4.01;100.00;99083.88;5046792;28;20116;-79
2022/11/22 06:18:05;;;;;;;16.00;3.80;;;;;;;3.98;100.00;99087.66;5045534;28;20477;-79
2022/11/22 06:20:31;;;;;;;13.38;3.22;;;;;;;3.96;100.00;99084.22;5049425;28;20107;-79
2022/11/22 06:22:59;;;;;;;14.85;3.67;;;;;;;3.95;100.00;99082.56;5046490;28;20093;-80
2022/11/22 06:25:24;;;;;;;15.93;3.35;;;;;;;3.95;100.00;99090.53;5052414;28;20029;-79
2022/11/22 06:27:50;;;;;;;18.88;4.00;;;;;;;3.95;100.00;99095.84;5047488;28;20477;-79
2022/11/22 06:30:15;;;;;;;19.25;4.15;;;;;;;3.94;100.00;99096.81;5053094;28;20029;-79
2022/11/22 06:32:40;;;;;;;16.38;3.97;;;;;;;3.92;100.00;99095.22;5067163;28;20093;-79
2022/11/22 06:35:06;;;;;;;16.05;3.70;;;;;;;3.90;100.00;99099.81;5045071;28;20032;-79
2022/11/22 06:37:34;;;;;;;16.40;3.42;;;;;;;3.90;100.00;99105.13;5064856;28;20523;-79
2022/11/22 06:39:59;;;;;;;17.55;3.13;;;;;;;3.88;100.00;99107.88;5045445;28;20395;-79
2022/11/22 06:42:25;;;;;;;14.35;3.58;;;;;;;3.88;100.00;99118.53;5048769;28;20401;-79
2022/11/22 06:44:50;;;;;;;13.10;3.58;;;;;;;3.90;100.00;99121.06;5049861;28;20040;-80
2022/11/22 06:47:16;;;;;;;13.50;3.38;;;;;;;3.92;100.00;99108.50;5052588;28;20033;-79
2022/11/22 06:49:42;;;;;;;20.50;5.53;;;;;;;3.94;100.00;99115.41;5052462;28;20421;-79
2022/11/22 06:52:07;;;;;;;18.90;4.97;;;;;;;3.94;100.00;99112.75;5047538;28;20519;-79
2022/11/22 06:54:32;;;;;;;18.73;4.10;;;;;;;3.97;100.00;99119.66;5059519;28;20054;-79
2022/11/22 06:56:58;;;;;;;15.32;4.45;;;;;;;4.00;100.00;99112.28;5048148;28;20400;-79
2022/11/22 06:59:23;;;;;;;16.90;4.18;;;;;;;4.03;100.00;99122.69;5044648;28;20046;-79
2022/11/22 07:01:48;;;;;;;14.05;3.45;;;;;;;4.07;100.00;99123.31;5050127;28;20060;-79
2022/11/22 07:04:14;;;;;;;18.98;3.45;;;;;;;4.09;100.00;99132.03;5045136;28;20044;-79
2022/11/22 07:06:39;;;;;;;12.60;3.30;;;;;;;4.11;100.00;99135.41;5053231;28;20473;-80
2022/11/22 07:09:07;;;;;;;13.35;3.60;;;;;;;4.13;100.00;99138.81;5048945;28;20025;-80
2022/11/22 07:11:33;;;;;;;14.50;2.95;;;;;;;4.16;100.00;99138.59;5061594;28;20044;-80
2022/11/22 07:14:00;;;;;;;15.40;4.25;;;;;;;4.18;100.00;99141.13;5047883;28;20024;-80
2022/11/22 07:16:26;;;;;;;14.60;3.45;;;;;;;4.23;100.00;99130.97;5048033;28;20447;-79
2022/11/22 07:18:51;;;;;;;13.18;3.72;;;;;;;4.24;100.00;99130.03;5060544;28;20096;-80
2022/11/22 07:21:18;;;;;;;17.63;3.72;;;;;;;4.29;100.00;99125.22;5056737;28;20024;-80
2022/11/22 07:23:46;;;;;;;12.52;3.55;;;;;;;4.32;100.00;99127.66;5049608;28;20476;-79
2022/11/22 07:26:12;;;;;;;15.15;4.15;;;;;;;4.36;100.00;99128.25;5053586;28;20048;-79
2022/11/22 07:28:38;;;;;;;16.77;3.50;;;;;;;4.40;100.00;99129.72;5042031;28;20044;-80
2022/11/22 07:31:06;;;;;;;17.17;3.95;;;;;;;4.45;100.00;99137.34;5041385;28;20530;-80
2022/11/22 07:33:31;;;;;;;14.32;3.67;;;;;;;4.47;100.00;99132.78;5054372;28;20024;-79
2022/11/22 07:36:04;;;;;;;18.10;4.07;;;;;;;4.50;100.00;99129.91;5054112;28;20032;-80
2022/11/22 07:38:29;;;;;;;14.80;3.17;;;;;;;4.53;100.00;99135.81;5048763;28;20033;-79
2022/11/22 07:40:55;;;;;;;15.65;3.55;;;;;;;4.60;100.00;99138.00;5050246;28;20606;-80
2022/11/22 07:43:20;;;;;;;18.58;3.75;;;;;;;4.62;100.00;99133.44;5061124;28;20069;-80
2022/11/22 07:45:45;;;;;;;14.68;3.50;;;;;;;4.64;100.00;99137.69;5049096;28;20117;-80
2022/11/22 07:48:13;;;;;;;14.02;3.05;;;;;;;4.66;100.00;99140.22;5049162;28;20041;-80
2022/11/22 07:50:39;;;;;;;11.27;3.33;;;;;;;4.69;100.00;99139.97;5055785;28;20365;-80
2022/11/22 07:53:05;;;;;;;16.30;3.58;;;;;;;4.70;100.00;99142.53;5057455;28;20325;-80
2022/11/22 07:55:30;;;;;;;14.07;3.35;;;;;;;4.72;100.00;99139.75;5053068;28;20124;-80
2022/11/22 07:57:59;;;;;;;14.00;3.88;;;;;;;4.72;100.00;99139.75;5050078;28;20117;-80
2022/11/22 08:00:25;;;;;;;9.80;3.10;;;;;;;4.76;100.00;99145.66;5051740;28;20448;-80
2022/11/22 08:02:51;;;;;;;19.05;4.03;;;;;;;4.76;100.00;99143.88;5046498;28;20066;-79
2022/11/22 08:05:17;;;;;;;12.50;3.30;;;;;;;4.77;100.00;99142.06;5040569;28;20153;-79
2022/11/22 08:07:50;;;;;;;20.58;4.40;;;;;;;4.82;100.00;99146.06;5044058;28;20033;-79
2022/11/22 08:10:16;;;;;;;12.80;3.70;;;;;;;4.84;100.00;99149.44;5046610;28;20520;-79
2022/11/22 08:12:41;;;;;;;17.33;3.33;;;;;;;4.87;100.00;99149.19;5051098;28;20065;-80
2022/11/22 08:15:09;;;;;;;14.88;3.15;;;;;;;4.90;100.00;99146.31;5048568;28;20388;-80
2022/11/22 08:17:35;;;;;;;11.88;3.17;;;;;;;4.89;100.00;99147.28;5052599;28;20029;-80
2022/11/22 08:20:00;;;;;;;15.20;3.65;;;;;;;4.90;100.00;99142.78;5038597;28;20085;-80
2022/11/22 08:22:25;;;;;;;11.95;3.65;;;;;;;4.89;100.00;99147.28;5049572;28;20037;-80
2022/11/22 08:24:51;;;;;;;15.15;3.72;;;;;;;4.94;100.00;99154.91;5048707;28;20028;-80
2022/11/22 08:27:16;;;;;;;15.90;3.38;;;;;;;4.94;100.00;99154.91;5049398;28;20048;-80
2022/11/22 08:29:41;;;;;;;13.00;2.85;;;;;;;4.97;100.00;99151.16;5048546;28;20040;-80
2022/11/22 08:32:06;;;;;;;10.57;3.38;;;;;;;4.98;100.00;99148.38;5053346;28;20115;-80
2022/11/22 08:34:32;;;;;;;14.98;3.88;;;;;;;5.01;100.00;99153.47;5051333;28;20032;-80
2022/11/22 08:36:57;;;;;;;15.90;3.08;;;;;;;5.04;100.00;99155.06;5047887;28;20108;-80
2022/11/22 08:39:22;;;;;;;16.02;3.67;;;;;;;5.06;100.00;99161.94;5050845;28;20056;-80
2022/11/22 08:41:48;;;;;;;13.80;2.75;;;;;;;5.08;100.00;99161.81;5048222;28;20036;-79
2022/11/22 08:44:13;;;;;;;11.95;3.47;;;;;;;5.11;100.00;99160.72;5051200;28;20535;-80
2022/11/22 08:46:38;;;;;;;17.00;3.40;;;;;;;5.12;100.00;99160.63;5046464;28;20022;-80
2022/11/22 08:49:05;;;;;;;17.50;3.90;;;;;;;5.16;100.00;99161.25;5046698;28;20031;-80
2022/11/22 08:51:31;;;;;;;17.65;4.32;;;;;;;5.15;100.00;99160.38;5051812;28;20481;-80
2022/11/22 08:53:57;;;;;;;14.57;3.55;;;;;;;5.17;100.00;99161.13;5046887;28;20028;-80
2022/11/22 08:56:23;;;;;;;12.57;3.40;;;;;;;5.21;100.00;99167.91;5061288;28;20449;-80
2022/11/22 08:58:48;;;;;;;14.85;3.45;;;;;;;5.27;100.00;99155.06;5057815;28;20025;-80
2022/11/22 09:01:15;;;;;;;12.18;3.00;;;;;;;5.30;100.00;99165.47;5053177;28;20068;-80
2022/11/22 09:03:41;;;;;;;15.73;3.17;;;;;;;5.32;100.00;99168.88;5049468;28;20024;-80
2022/11/22 09:06:10;;;;;;;11.20;2.65;;;;;;;5.33;99.93;99160.78;5046082;28;20040;-80
2022/11/22 09:08:36;;;;;;;7.88;2.88;;;;;;;5.35;100.00;99163.31;5045842;28;20028;-80
2022/11/22 09:11:10;;;;;;;15.88;3.95;;;;;;;5.36;100.00;99172.97;5065418;28;20087;-80
2022/11/22 09:13:35;;;;;;;15.07;3.83;;;;;;;5.40;100.00;99171.78;5063698;28;20107;-80
2022/11/22 09:16:09;;;;;;;19.52;3.65;;;;;;;5.43;100.00;99177.72;5053009;28;20102;-80
2022/11/22 09:18:35;;;;;;;12.95;3.55;;;;;;;5.46;100.00;99175.78;5063587;28;20024;-79
2022/11/22 09:21:03;;;;;;;14.02;3.38;;;;;;;5.51;100.00;99171.78;5054340;28;20025;-79
2022/11/22 09:23:28;;;;;;;15.27;3.15;;;;;;;5.53;99.94;99169.81;5047964;28;20029;-80
2022/11/22 09:25:58;;;;;;;13.60;3.60;;;;;;;5.55;99.71;99165.25;5053754;28;20397;-80
2022/11/22 09:28:24;;;;;;;;;;;;;;;5.65;100.00;99175.16;5062061;28;20028;-80
2022/11/22 09:30:50;;;;;;;12.93;3.38;;;;;;;5.63;99.67;99180.63;5049419;28;19920;-80
2022/11/22 09:33:15;;;;;;;10.35;2.78;;;;;;;5.66;100.00;99176.88;5055075;28;20039;-80
2022/11/22 09:35:40;;;;;;;15.75;3.63;;;;;;;5.69;99.96;99176.63;5058603;28;20063;-80
2022/11/22 09:38:07;;;;;;;14.18;3.60;;;;;;;5.73;100.00;99172.75;5049308;28;20017;-80
2022/11/22 09:40:33;;;;;;;14.65;3.80;;;;;;;5.76;100.00;99183.16;5065741;28;20040;-80
2022/11/22 09:43:52;;;;;;;11.98;3.03;;;;;;;5.79;99.93;99172.25;5053566;28;20098;-80
2022/11/22 09:46:45;;;;;;;10.07;2.97;;;;;;;5.81;99.76;99172.94;5048208;28;20554;-80
2022/11/22 09:49:37;;;;;;;11.25;3.10;;;;;;;5.84;98.99;99170.06;5050734;28;20037;-80
2022/11/22 09:52:09;;;;;;;11.00;3.20;;;;;;;5.84;98.24;99174.53;5056717;28;20033;-80
2022/11/22 09:54:45;;;;;;;7.53;2.45;;;;;;;5.88;98.73;99174.16;5069415;28;20166;-80
2022/11/22 09:57:21;;;;;;;6.30;2.33;;;;;;;5.93;99.86;99184.47;5052609;28;20064;-80
2022/11/22 09:59:53;;;;;;;12.75;3.13;;;;;;;5.96;98.16;99178.88;5052513;28;20040;-80
2022/11/22 10:02:25;;;;;;;10.07;2.88;;;;;;;5.98;97.58;99187.63;5068019;28;20522;-80
2022/11/22 10:04:56;;;;;;;11.18;2.60;;;;;;;5.98;97.06;99189.47;5053397;28;20024;-80
2022/11/22 10:07:36;;;;;;;8.02;2.40;;;;;;;5.99;97.72;99183.13;5059486;28;20043;-80
2022/11/22 10:10:17;;;;;;;7.43;2.33;;;;;;;6.00;97.84;99188.34;5059332;28;20031;-80
2022/11/22 10:12:49;;;;;;;7.65;2.55;;;;;;;6.02;98.79;99188.22;5059034;28;20028;-80
2022/11/22 10:15:43;;;;;;;9.70;2.50;;;;;;;6.03;97.72;99185.44;5059489;28;20369;-80
2022/11/22 10:18:19;;;;;;;7.75;2.15;;;;;;;6.04;98.74;99179.13;5070499;28;20071;-80
2022/11/22 10:20:44;;;;;;;6.78;2.20;;;;;;;6.07;98.99;99184.22;5055646;28;20025;-80
2022/11/22 10:23:18;;;;;;;10.90;2.60;;;;;;;6.08;98.46;99177.91;5055744;28;20047;-80
2022/11/22 10:25:47;;;;;;;7.63;2.20;;;;;;;6.08;98.82;99183.25;5051746;28;20103;-80
2022/11/22 10:28:17;;;;;;;10.18;2.72;;;;;;;6.08;98.60;99177.06;5046521;28;20025;-80
2022/11/22 10:30:47;;;;;;;;;;;;;;;6.13;99.24;99177.53;5049805;28;20029;-80
2022/11/22 10:33:19;;;;;;;10.68;2.78;;;;;;;6.09;99.05;99170.75;5050108;28;19916;-80
2022/11/22 10:36:02;;;;;;;9.45;2.28;;;;;;;6.10;99.06;99170.63;5051824;28;20029;-80
2022/11/22 10:38:53;;;;;;;8.70;2.97;;;;;;;6.10;98.77;99154.63;5054601;28;20037;-80
2022/11/22 10:41:29;;;;;;;6.93;2.15;;;;;;;6.15;98.64;99162.28;5038843;28;20396;-80
2022/11/22 10:44:13;;;;;;;9.15;2.47;;;;;;;6.15;98.64;99167.59;5038724;28;20048;-80
2022/11/22 10:47:03;;;;;;;10.38;2.67;;;;;;;6.20;98.54;99159.22;5050882;28;20043;-80
2022/11/22 10:50:04;;;;;;;9.15;2.33;;;;;;;6.22;98.14;99160.78;5051717;28;20440;-80
2022/11/22 10:52:51;;;;;;;13.30;2.60;;;;;;;6.26;97.40;99154.19;5050456;28;20077;-80
2022/11/22 10:55:53;;;;;;;7.72;2.50;;;;;;;6.29;97.24;99153.09;5058234;28;20063;-80
2022/11/22 10:58:33;;;;;;;9.15;2.70;;;;;;;6.33;97.63;99153.72;5052964;28;20468;-80
2022/11/22 11:01:04;;;;;;;15.13;3.10;;;;;;;6.36;97.46;99153.47;5054582;28;20481;-80
2022/11/22 11:03:37;;;;;;;5.40;2.10;;;;;;;6.40;97.85;99149.53;5054326;28;20040;-80
2022/11/22 11:06:12;;;;;;;5.43;2.17;;;;;;;6.42;96.30;99152.94;5060760;28;20766;-81
2022/11/22 11:08:51;;;;;;;12.88;2.50;;;;;;;6.43;96.34;99149.31;5064045;28;20024;-80
2022/11/22 11:11:19;;;;;;;8.77;2.45;;;;;;;6.43;97.65;99144.81;5053439;28;20033;-81
2022/11/22 11:13:48;;;;;;;7.38;1.92;;;;;;;6.45;96.82;99134.84;5058608;28;20027;-80
2022/11/22 11:16:18;;;;;;;6.78;2.22;;;;;;;6.45;96.30;99126.84;5056114;28;20040;-81
2022/11/22 11:18:50;;;;;;;4.45;1.92;;;;;;;6.48;95.79;99141.75;5060716;28;20024;-81
2022/11/22 11:21:16;;;;;;;10.10;2.92;;;;;;;6.47;96.31;99124.03;5069334;28;20128;-81
2022/11/22 11:23:41;;;;;;;7.70;2.25;;;;;;;6.48;95.06;99123.91;5052354;28;20031;-81
2022/11/22 11:26:26;;;;;;;10.35;2.47;;;;;;;6.50;96.02;99118.47;5072108;28;20101;-81
2022/11/22 11:29:17;;;;;;;5.07;1.90;;;;;;;6.54;96.18;99113.69;5057157;28;20078;-81
2022/11/22 11:31:49;;;;;;;4.05;1.83;;;;;;;6.55;95.70;99118.06;5069923;28;20421;-81
2022/11/22 11:34:28;;;;;;;11.75;2.78;;;;;;;6.58;95.48;99118.66;5062995;28;20377;-81
2022/11/22 11:36:56;;;;;;;4.97;1.80;;;;;;;6.60;94.80;99116.72;5055200;28;20029;-80
2022/11/22 11:39:33;;;;;;;8.25;1.73;;;;;;;6.66;95.32;99118.00;5049428;28;20036;-82
2022/11/22 11:41:59;;;;;;;8.45;2.05;;;;;;;6.64;94.91;99123.47;5055591;28;20028;-81
2022/11/22 11:44:26;;;;;;;6.07;1.77;;;;;;;6.64;94.24;99118.13;5056854;28;20039;-79
2022/11/22 11:46:52;;;;;;;3.50;1.70;;;;;;;6.67;94.01;99113.53;5062007;28;20035;-83